Time;durP1;ratioP1;P1;durP2;ratioP2;P2;SDS_P1;SDS_P2;PMS_P1;PMS_P2;Temp;Humidity;BMP_temperature;BMP_pressure;BME280_temperature;BME280_humidity;BME280_pressure;Samples;Min_cycle;Max_cycle;Signal;HPM_P1;HPM_P2
2023/12/04 00:01:23;;;;;;;25.57;14.93;;;;;;;;;;5116534;28;20030;-55
2023/12/04 00:03:49;;;;;;;21.77;14.43;;;;;;;;;;5116566;28;20024;-57
2023/12/04 00:06:15;;;;;;;15.77;13.67;;;;;;;;;;5115922;28;20042;-56
2023/12/04 00:08:41;;;;;;;21.67;15.50;;;;;;;;;;5116821;28;20031;-56
2023/12/04 00:11:07;;;;;;;18.83;15.17;;;;;;;;;;5116383;28;20028;-54
2023/12/04 00:13:33;;;;;;;21.87;14.50;;;;;;;;;;5117145;28;20036;-52
2023/12/04 00:15:59;;;;;;;22.13;14.97;;;;;;;;;;5116295;28;20027;-54
2023/12/04 00:18:25;;;;;;;22.93;14.53;;;;;;;;;;5116209;28;20110;-53
2023/12/04 00:20:52;;;;;;;18.40;14.47;;;;;;;;;;5116220;28;20031;-53
2023/12/04 00:23:18;;;;;;;17.07;12.93;;;;;;;;;;5116228;28;20059;-56
2023/12/04 00:25:44;;;;;;;21.97;15.50;;;;;;;;;;5116113;28;20051;-57
2023/12/04 00:28:09;;;;;;;21.20;15.17;;;;;;;;;;5116981;28;20031;-56
2023/12/04 00:30:35;;;;;;;20.53;14.93;;;;;;;;;;5116015;28;20028;-56
2023/12/04 00:33:01;;;;;;;16.40;12.13;;;;;;;;;;5116217;28;20020;-58
2023/12/04 00:35:27;;;;;;;18.17;14.17;;;;;;;;;;5116733;28;20351;-56
2023/12/04 00:37:53;;;;;;;21.63;14.07;;;;;;;;;;5115822;28;20024;-57
2023/12/04 00:40:19;;;;;;;18.87;13.17;;;;;;;;;;5115547;28;20080;-55
2023/12/04 00:42:45;;;;;;;16.87;13.03;;;;;;;;;;5115844;28;20108;-57
2023/12/04 00:45:11;;;;;;;17.70;13.03;;;;;;;;;;5116511;28;20115;-56
2023/12/04 00:47:37;;;;;;;19.07;14.80;;;;;;;;;;5116272;28;20416;-57
2023/12/04 00:50:04;;;;;;;16.37;14.43;;;;;;;;;;5115566;28;20031;-55
2023/12/04 00:52:29;;;;;;;16.60;13.60;;;;;;;;;;5115587;28;20026;-57
2023/12/04 00:54:56;;;;;;;17.73;14.67;;;;;;;;;;5115399;28;20110;-58
2023/12/04 00:57:21;;;;;;;22.23;15.70;;;;;;;;;;5116052;28;20019;-54
2023/12/04 00:59:47;;;;;;;19.37;14.63;;;;;;;;;;5116010;28;20028;-57
2023/12/04 01:02:13;;;;;;;16.73;14.43;;;;;;;;;;5115139;28;20020;-56
2023/12/04 01:04:42;;;;;;;17.30;14.20;;;;;;;;;;5115837;28;20100;-57
2023/12/04 01:07:08;;;;;;;16.13;12.67;;;;;;;;;;5115334;28;20114;-53
2023/12/04 01:09:37;;;;;;;17.63;14.23;;;;;;;;;;5115253;28;20445;-57
2023/12/04 01:12:04;;;;;;;15.83;12.67;;;;;;;;;;5115074;28;20080;-56
2023/12/04 01:14:30;;;;;;;20.63;14.37;;;;;;;;;;5115663;28;20366;-54
2023/12/04 01:16:56;;;;;;;21.03;14.87;;;;;;;;;;5115587;28;20082;-55
2023/12/04 01:19:21;;;;;;;18.57;13.53;;;;;;;;;;5115061;28;20027;-57
2023/12/04 01:21:47;;;;;;;18.27;12.90;;;;;;;;;;5115025;28;20034;-53
2023/12/04 01:24:15;;;;;;;17.43;12.20;;;;;;;;;;5115175;28;20027;-58
2023/12/04 01:26:41;;;;;;;17.23;12.07;;;;;;;;;;5114926;28;20030;-58
2023/12/04 01:29:07;;;;;;;15.40;13.03;;;;;;;;;;5115253;28;20024;-58
2023/12/04 01:31:33;;;;;;;18.13;12.67;;;;;;;;;;5114865;28;20110;-57
2023/12/04 01:33:59;;;;;;;18.13;13.47;;;;;;;;;;5114822;28;20074;-58
2023/12/04 01:36:25;;;;;;;15.97;13.03;;;;;;;;;;5115263;28;20358;-55
2023/12/04 01:38:51;;;;;;;21.00;15.93;;;;;;;;;;5114767;28;20024;-55
2023/12/04 01:41:17;;;;;;;17.30;13.77;;;;;;;;;;5114704;28;20035;-56
2023/12/04 01:43:43;;;;;;;15.00;12.37;;;;;;;;;;5114658;28;20019;-57
2023/12/04 01:46:09;;;;;;;17.93;14.43;;;;;;;;;;5114616;28;20027;-55
2023/12/04 01:48:36;;;;;;;17.40;13.80;;;;;;;;;;5115380;28;20037;-57
2023/12/04 01:51:04;;;;;;;17.53;15.27;;;;;;;;;;5114465;28;20028;-58
2023/12/04 01:53:29;;;;;;;14.60;12.97;;;;;;;;;;5114460;28;20024;-56
2023/12/04 01:55:55;;;;;;;21.10;15.00;;;;;;;;;;5114242;28;20131;-57
2023/12/04 01:58:21;;;;;;;20.43;14.47;;;;;;;;;;5114542;28;20080;-55
2023/12/04 02:00:47;;;;;;;18.57;14.17;;;;;;;;;;5114672;28;20032;-56
2023/12/04 02:03:14;;;;;;;16.93;12.10;;;;;;;;;;5114840;28;20019;-51
2023/12/04 02:05:40;;;;;;;17.17;13.60;;;;;;;;;;5114586;28;20076;-56
2023/12/04 02:08:06;;;;;;;20.40;13.73;;;;;;;;;;5115136;28;20028;-55
2023/12/04 02:10:32;;;;;;;17.43;13.10;;;;;;;;;;5114537;28;20032;-56
2023/12/04 02:12:58;;;;;;;19.63;14.73;;;;;;;;;;5114312;28;20032;-55
2023/12/04 02:15:24;;;;;;;18.03;12.87;;;;;;;;;;5114302;28;20454;-54
2023/12/04 02:17:50;;;;;;;18.87;13.37;;;;;;;;;;5114711;28;20412;-56
2023/12/04 02:20:17;;;;;;;19.80;14.60;;;;;;;;;;5114181;28;20024;-57
2023/12/04 02:22:43;;;;;;;21.87;14.83;;;;;;;;;;5114292;28;20102;-56
2023/12/04 02:25:09;;;;;;;18.27;13.03;;;;;;;;;;5114147;28;20043;-56
2023/12/04 02:27:41;;;;;;;17.70;11.67;;;;;;;;;;5114355;28;20032;-57
2023/12/04 02:30:08;;;;;;;14.63;12.47;;;;;;;;;;5116354;28;20023;-57
2023/12/04 02:32:36;;;;;;;19.20;13.17;;;;;;;;;;5118294;28;20023;-58
2023/12/04 02:35:06;;;;;;;20.83;14.47;;;;;;;;;;5118209;28;20028;-55
2023/12/04 02:37:32;;;;;;;17.05;12.00;;;;;;;;;;5118984;28;20076;-56
2023/12/04 02:39:58;;;;;;;22.73;13.13;;;;;;;;;;5118124;28;20032;-56
2023/12/04 02:42:25;;;;;;;19.97;14.83;;;;;;;;;;5118048;28;20124;-55
2023/12/04 02:44:51;;;;;;;16.93;12.70;;;;;;;;;;5118126;28;20027;-54
2023/12/04 02:47:17;;;;;;;17.37;14.83;;;;;;;;;;5118409;28;20400;-57
2023/12/04 02:49:43;;;;;;;24.07;14.87;;;;;;;;;;5118514;28;20392;-53
2023/12/04 02:52:09;;;;;;;19.60;15.47;;;;;;;;;;5118359;28;20111;-56
2023/12/04 02:54:35;;;;;;;17.07;13.57;;;;;;;;;;5117885;28;20431;-56
2023/12/04 02:57:01;;;;;;;18.60;14.93;;;;;;;;;;5118732;28;20047;-55
2023/12/04 02:59:27;;;;;;;16.67;12.60;;;;;;;;;;5118337;28;20027;-51
2023/12/04 03:01:53;;;;;;;18.20;12.83;;;;;;;;;;5117613;28;20024;-57
2023/12/04 03:04:21;;;;;;;17.13;11.93;;;;;;;;;;5117979;28;20027;-54
2023/12/04 03:06:47;;;;;;;17.13;12.63;;;;;;;;;;5118016;28;20020;-52
2023/12/04 03:09:13;;;;;;;20.10;13.07;;;;;;;;;;5118059;28;20028;-54
2023/12/04 03:11:40;;;;;;;13.27;11.90;;;;;;;;;;5117473;28;20027;-52
2023/12/04 03:14:06;;;;;;;15.87;13.70;;;;;;;;;;5118009;28;20032;-52
2023/12/04 03:16:32;;;;;;;18.13;12.43;;;;;;;;;;5117299;28;20026;-54
2023/12/04 03:18:58;;;;;;;16.67;12.70;;;;;;;;;;5117978;28;20024;-57
2023/12/04 03:21:24;;;;;;;14.33;11.93;;;;;;;;;;5117288;28;20027;-56
2023/12/04 03:23:50;;;;;;;20.70;14.97;;;;;;;;;;5117380;28;20020;-51
2023/12/04 03:26:16;;;;;;;20.30;14.40;;;;;;;;;;5117557;28;20027;-55
2023/12/04 03:28:42;;;;;;;14.20;11.87;;;;;;;;;;5117233;28;20197;-54
2023/12/04 03:31:08;;;;;;;17.47;13.53;;;;;;;;;;5117942;28;20110;-52
2023/12/04 03:33:34;;;;;;;17.77;11.53;;;;;;;;;;5117352;28;20032;-56
2023/12/04 03:36:00;;;;;;;19.73;14.53;;;;;;;;;;5117899;28;20145;-51
2023/12/04 03:38:26;;;;;;;16.90;12.33;;;;;;;;;;5117288;28;20028;-55
2023/12/04 03:40:52;;;;;;;13.73;11.53;;;;;;;;;;5117140;28;20074;-56
2023/12/04 03:43:18;;;;;;;14.90;11.00;;;;;;;;;;5116928;28;20411;-53
2023/12/04 03:45:44;;;;;;;16.97;11.27;;;;;;;;;;5117423;28;20437;-53
2023/12/04 03:48:10;;;;;;;16.10;12.30;;;;;;;;;;5117115;28;20484;-53
2023/12/04 03:50:36;;;;;;;14.47;12.10;;;;;;;;;;5116764;28;20023;-53
2023/12/04 03:53:02;;;;;;;17.63;13.27;;;;;;;;;;5117320;28;20385;-57
2023/12/04 03:55:28;;;;;;;14.27;12.07;;;;;;;;;;5116672;28;20042;-51
2023/12/04 03:57:54;;;;;;;15.97;11.63;;;;;;;;;;5117430;28;20152;-53
2023/12/04 04:00:20;;;;;;;19.87;14.37;;;;;;;;;;5116620;28;20037;-57
2023/12/04 04:02:46;;;;;;;15.23;12.40;;;;;;;;;;5116266;28;20023;-57
2023/12/04 04:05:12;;;;;;;15.43;12.30;;;;;;;;;;5117070;28;20373;-56
2023/12/04 04:07:38;;;;;;;18.10;14.37;;;;;;;;;;5117411;28;20024;-57
2023/12/04 04:10:04;;;;;;;16.10;13.30;;;;;;;;;;5116460;28;20020;-57
2023/12/04 04:12:30;;;;;;;20.63;11.63;;;;;;;;;;5117104;28;20024;-57
2023/12/04 04:14:56;;;;;;;16.80;13.93;;;;;;;;;;5116877;28;20020;-57
2023/12/04 04:17:25;;;;;;;15.20;12.43;;;;;;;;;;5116300;28;20065;-56
2023/12/04 04:19:51;;;;;;;17.33;12.13;;;;;;;;;;5116231;28;20080;-54
2023/12/04 04:22:17;;;;;;;12.53;10.57;;;;;;;;;;5115977;28;20115;-53
2023/12/04 04:24:43;;;;;;;15.03;11.90;;;;;;;;;;5116530;28;20027;-50
2023/12/04 04:27:09;;;;;;;13.67;11.50;;;;;;;;;;5116329;28;20085;-54
2023/12/04 04:29:35;;;;;;;15.83;13.03;;;;;;;;;;5115684;28;20347;-54
2023/12/04 04:32:01;;;;;;;12.30;10.57;;;;;;;;;;5116003;28;20028;-54
2023/12/04 04:34:27;;;;;;;14.90;12.33;;;;;;;;;;5115909;28;20091;-53
2023/12/04 04:36:52;;;;;;;14.83;11.20;;;;;;;;;;5115505;28;20042;-52
2023/12/04 04:39:18;;;;;;;16.07;13.73;;;;;;;;;;5115810;28;20035;-52
2023/12/04 04:41:45;;;;;;;14.60;11.27;;;;;;;;;;5116539;28;20023;-48
2023/12/04 04:44:11;;;;;;;23.17;12.73;;;;;;;;;;5115476;28;20465;-53
2023/12/04 04:46:37;;;;;;;17.00;12.17;;;;;;;;;;5115601;28;20028;-54
2023/12/04 04:49:06;;;;;;;14.70;11.57;;;;;;;;;;5116769;28;20034;-52
2023/12/04 04:51:32;;;;;;;15.07;12.27;;;;;;;;;;5115232;28;20028;-53
2023/12/04 04:53:58;;;;;;;18.40;14.53;;;;;;;;;;5115239;28;20097;-49
2023/12/04 04:56:24;;;;;;;12.90;11.03;;;;;;;;;;5115252;28;20043;-52
2023/12/04 04:58:50;;;;;;;14.70;11.90;;;;;;;;;;5115057;28;20473;-55
2023/12/04 05:01:16;;;;;;;15.70;12.43;;;;;;;;;;5115895;28;20409;-56
2023/12/04 05:03:42;;;;;;;19.63;13.30;;;;;;;;;;5115481;28;20028;-54
2023/12/04 05:06:08;;;;;;;16.27;12.73;;;;;;;;;;5115296;28;20458;-51
2023/12/04 05:08:34;;;;;;;15.27;11.53;;;;;;;;;;5115591;28;20024;-53
2023/12/04 05:11:00;;;;;;;17.00;10.80;;;;;;;;;;5115224;28;20034;-53
2023/12/04 05:13:26;;;;;;;14.57;11.83;;;;;;;;;;5114927;28;20111;-55
2023/12/04 05:15:51;;;;;;;17.27;13.77;;;;;;;;;;5115928;28;20088;-58
2023/12/04 05:18:17;;;;;;;14.23;12.00;;;;;;;;;;5115512;28;20032;-58
2023/12/04 05:20:43;;;;;;;14.67;10.73;;;;;;;;;;5115149;28;20145;-55
2023/12/04 05:23:09;;;;;;;15.97;11.93;;;;;;;;;;5115038;28;20028;-57
2023/12/04 05:25:35;;;;;;;13.37;11.13;;;;;;;;;;5115243;28;20024;-56
2023/12/04 05:28:01;;;;;;;13.00;11.57;;;;;;;;;;5115247;28;20042;-57
2023/12/04 05:30:27;;;;;;;15.13;12.03;;;;;;;;;;5114861;28;20048;-56
2023/12/04 05:32:54;;;;;;;22.93;13.10;;;;;;;;;;5114436;28;20026;-54
2023/12/04 05:35:20;;;;;;;15.93;12.37;;;;;;;;;;5114746;28;20027;-54
2023/12/04 05:37:46;;;;;;;17.70;12.23;;;;;;;;;;5114908;28;20049;-54
2023/12/04 05:40:12;;;;;;;11.70;10.27;;;;;;;;;;5114521;28;20035;-55
2023/12/04 05:42:38;;;;;;;14.30;12.70;;;;;;;;;;5114566;28;20027;-57
2023/12/04 05:45:04;;;;;;;15.83;11.17;;;;;;;;;;5114516;28;20088;-55
2023/12/04 05:47:30;;;;;;;14.60;13.03;;;;;;;;;;5114942;28;20142;-55
2023/12/04 05:49:56;;;;;;;13.03;11.07;;;;;;;;;;5113643;28;20055;-55
2023/12/04 05:52:22;;;;;;;17.50;11.70;;;;;;;;;;5113921;28;20457;-57
2023/12/04 05:54:48;;;;;;;12.40;10.03;;;;;;;;;;5113983;28;20031;-57
2023/12/04 05:57:14;;;;;;;11.77;9.80;;;;;;;;;;5114295;28;20024;-56
2023/12/04 05:59:40;;;;;;;14.93;11.87;;;;;;;;;;5113686;28;20019;-56
2023/12/04 06:02:06;;;;;;;10.40;9.13;;;;;;;;;;5112589;28;20019;-53
2023/12/04 06:04:32;;;;;;;13.03;11.50;;;;;;;;;;5113320;28;20038;-51
2023/12/04 06:06:58;;;;;;;15.90;13.13;;;;;;;;;;5114748;28;20024;-51
2023/12/04 06:09:23;;;;;;;13.27;11.00;;;;;;;;;;5114050;28;20024;-51
2023/12/04 06:11:49;;;;;;;13.60;11.60;;;;;;;;;;5114007;28;20397;-54
2023/12/04 06:14:15;;;;;;;17.83;10.90;;;;;;;;;;5113664;28;20066;-50
2023/12/04 06:16:41;;;;;;;13.50;11.10;;;;;;;;;;5114588;28;20019;-50
2023/12/04 06:19:07;;;;;;;14.50;11.43;;;;;;;;;;5115056;28;20031;-54
2023/12/04 06:21:33;;;;;;;12.07;9.87;;;;;;;;;;5113707;28;20023;-53
2023/12/04 06:23:59;;;;;;;14.40;10.43;;;;;;;;;;5114027;28;20031;-51
2023/12/04 06:26:25;;;;;;;15.40;12.53;;;;;;;;;;5114624;28;20405;-52
2023/12/04 06:28:51;;;;;;;14.77;11.83;;;;;;;;;;5114351;28;20028;-51
2023/12/04 06:31:17;;;;;;;14.80;12.70;;;;;;;;;;5113476;28;20469;-52
2023/12/04 06:33:43;;;;;;;12.03;10.37;;;;;;;;;;5113718;28;20411;-50
2023/12/04 06:36:11;;;;;;;14.00;11.00;;;;;;;;;;5114388;28;20369;-53
2023/12/04 06:38:38;;;;;;;14.70;12.07;;;;;;;;;;5114132;28;20035;-55
2023/12/04 06:41:04;;;;;;;17.27;12.53;;;;;;;;;;5113337;28;20028;-54
2023/12/04 06:43:31;;;;;;;12.70;10.83;;;;;;;;;;5112514;28;20526;-49
2023/12/04 06:45:58;;;;;;;13.63;10.43;;;;;;;;;;5113287;28;20034;-53
2023/12/04 06:48:24;;;;;;;12.73;11.30;;;;;;;;;;5113275;28;20027;-49
2023/12/04 06:50:50;;;;;;;14.77;11.23;;;;;;;;;;5113531;28;20327;-53
2023/12/04 06:53:16;;;;;;;15.80;13.63;;;;;;;;;;5113979;28;20081;-55
2023/12/04 06:55:42;;;;;;;16.13;11.93;;;;;;;;;;5113639;28;20052;-51
2023/12/04 06:58:08;;;;;;;14.90;10.97;;;;;;;;;;5113675;28;20027;-50
2023/12/04 07:00:34;;;;;;;15.33;11.13;;;;;;;;;;5114406;28;20027;-53
2023/12/04 07:03:00;;;;;;;13.53;11.50;;;;;;;;;;5113984;28;20019;-53
2023/12/04 07:05:26;;;;;;;14.57;11.53;;;;;;;;;;5113754;28;20023;-50
2023/12/04 07:07:52;;;;;;;13.00;11.17;;;;;;;;;;5114344;28;20038;-53
2023/12/04 07:10:18;;;;;;;16.30;11.23;;;;;;;;;;5114071;28;20361;-53
2023/12/04 07:12:44;;;;;;;18.00;12.47;;;;;;;;;;5113657;28;20024;-52
2023/12/04 07:15:11;;;;;;;13.57;11.63;;;;;;;;;;5113684;28;20420;-52
2023/12/04 07:17:37;;;;;;;13.97;12.13;;;;;;;;;;5118036;28;20413;-52
2023/12/04 07:20:06;;;;;;;14.87;11.70;;;;;;;;;;5118136;28;20069;-54
2023/12/04 07:22:32;;;;;;;14.97;10.90;;;;;;;;;;5116269;28;20031;-55
2023/12/04 07:24:57;;;;;;;16.90;12.40;;;;;;;;;;5117024;28;20102;-49
2023/12/04 07:27:23;;;;;;;17.97;12.90;;;;;;;;;;5117669;28;20053;-48
2023/12/04 07:29:49;;;;;;;15.60;11.67;;;;;;;;;;5116665;28;20024;-55
2023/12/04 07:32:15;;;;;;;11.27;9.70;;;;;;;;;;5117440;28;20066;-52
2023/12/04 07:34:41;;;;;;;15.17;12.57;;;;;;;;;;5117520;28;20062;-50
2023/12/04 07:37:07;;;;;;;16.97;13.33;;;;;;;;;;5117548;28;20032;-52
2023/12/04 07:39:33;;;;;;;15.17;11.73;;;;;;;;;;5116956;28;20489;-56
2023/12/04 07:41:59;;;;;;;14.47;10.80;;;;;;;;;;5117608;28;20019;-56
2023/12/04 07:44:25;;;;;;;19.03;13.47;;;;;;;;;;5117097;28;20062;-55
2023/12/04 07:46:51;;;;;;;13.80;11.17;;;;;;;;;;5117627;28;20442;-49
2023/12/04 07:49:17;;;;;;;17.07;12.07;;;;;;;;;;5117117;28;20112;-49
2023/12/04 07:51:43;;;;;;;15.30;12.97;;;;;;;;;;5116797;28;20028;-52
2023/12/04 07:54:09;;;;;;;15.87;12.10;;;;;;;;;;5116840;28;20026;-49
2023/12/04 07:56:34;;;;;;;15.07;12.37;;;;;;;;;;5116809;28;20047;-52
2023/12/04 07:59:00;;;;;;;15.17;11.33;;;;;;;;;;5116662;28;20035;-53
2023/12/04 08:01:26;;;;;;;16.13;12.43;;;;;;;;;;5116724;28;20097;-53
2023/12/04 08:03:52;;;;;;;23.90;12.47;;;;;;;;;;5116584;28;20399;-52
2023/12/04 08:06:19;;;;;;;17.07;12.67;;;;;;;;;;5117151;28;20020;-53
2023/12/04 08:08:45;;;;;;;17.87;12.77;;;;;;;;;;5117164;28;20024;-50
2023/12/04 08:11:11;;;;;;;15.97;12.60;;;;;;;;;;5116297;28;20028;-51
2023/12/04 08:13:38;;;;;;;16.03;12.23;;;;;;;;;;5116757;28;20035;-52
2023/12/04 08:16:05;;;;;;;14.43;11.27;;;;;;;;;;5116862;28;20490;-53
2023/12/04 08:18:31;;;;;;;19.93;12.73;;;;;;;;;;5116145;28;20157;-53
2023/12/04 08:20:57;;;;;;;13.83;11.87;;;;;;;;;;5116215;28;20069;-51
2023/12/04 08:23:22;;;;;;;15.77;12.47;;;;;;;;;;5116522;28;20024;-53
2023/12/04 08:25:49;;;;;;;16.03;13.07;;;;;;;;;;5116111;28;20019;-53
2023/12/04 08:28:15;;;;;;;14.77;13.00;;;;;;;;;;5115854;28;20088;-55
2023/12/04 08:30:41;;;;;;;14.10;11.70;;;;;;;;;;5115822;28;20457;-55
2023/12/04 08:33:07;;;;;;;17.50;13.77;;;;;;;;;;5116047;28;20024;-52
2023/12/04 08:35:33;;;;;;;19.97;13.63;;;;;;;;;;5116068;28;20080;-51
2023/12/04 08:37:59;;;;;;;17.47;14.03;;;;;;;;;;5115960;28;20032;-54
2023/12/04 08:40:25;;;;;;;18.37;14.03;;;;;;;;;;5116270;28;20027;-56
2023/12/04 08:42:51;;;;;;;22.33;17.10;;;;;;;;;;5115900;28;20053;-53
2023/12/04 08:45:17;;;;;;;17.47;14.90;;;;;;;;;;5115710;28;20024;-52
2023/12/04 08:47:43;;;;;;;18.27;13.63;;;;;;;;;;5116046;28;20122;-54
2023/12/04 08:50:09;;;;;;;16.37;12.77;;;;;;;;;;5115600;28;20027;-53
2023/12/04 08:52:35;;;;;;;15.50;12.37;;;;;;;;;;5116264;28;20110;-54
2023/12/04 08:55:01;;;;;;;13.00;10.87;;;;;;;;;;5115798;28;20116;-51
2023/12/04 08:57:27;;;;;;;15.97;14.10;;;;;;;;;;5115564;28;20032;-53
2023/12/04 08:59:53;;;;;;;24.53;13.73;;;;;;;;;;5115071;28;20028;-54
2023/12/04 09:02:19;;;;;;;21.17;12.67;;;;;;;;;;5114734;28;20077;-53
2023/12/04 09:04:45;;;;;;;15.30;13.20;;;;;;;;;;5115396;28;20027;-56
2023/12/04 09:07:11;;;;;;;17.87;13.57;;;;;;;;;;5116010;28;20053;-56
2023/12/04 09:09:37;;;;;;;16.27;11.43;;;;;;;;;;5116163;28;20026;-54
2023/12/04 09:12:03;;;;;;;16.53;10.87;;;;;;;;;;5115318;28;20028;-56
2023/12/04 09:14:29;;;;;;;18.53;14.23;;;;;;;;;;5115288;28;20027;-54
2023/12/04 09:16:55;;;;;;;15.63;11.73;;;;;;;;;;5115742;28;20031;-53
2023/12/04 09:19:21;;;;;;;18.53;11.83;;;;;;;;;;5115104;28;20028;-54
2023/12/04 09:21:47;;;;;;;16.83;12.63;;;;;;;;;;5115739;28;20031;-54
2023/12/04 09:24:14;;;;;;;15.77;11.17;;;;;;;;;;5115057;28;20477;-53
2023/12/04 09:26:40;;;;;;;17.57;11.43;;;;;;;;;;5115604;28;20160;-54
2023/12/04 09:29:06;;;;;;;16.07;11.90;;;;;;;;;;5115951;28;20063;-56
2023/12/04 09:31:31;;;;;;;16.27;12.90;;;;;;;;;;5114967;28;20038;-53
2023/12/04 09:33:57;;;;;;;15.60;12.73;;;;;;;;;;5114871;28;20102;-51
2023/12/04 09:36:24;;;;;;;15.97;13.90;;;;;;;;;;5114819;28;20024;-53
2023/12/04 09:38:50;;;;;;;18.13;12.77;;;;;;;;;;5114178;28;20526;-54
2023/12/04 09:41:16;;;;;;;16.17;12.40;;;;;;;;;;5114479;28;20030;-51
2023/12/04 09:43:42;;;;;;;14.70;12.60;;;;;;;;;;5115015;28;20107;-54
2023/12/04 09:46:09;;;;;;;14.83;11.83;;;;;;;;;;5114201;28;20019;-54
2023/12/04 09:48:35;;;;;;;15.90;12.63;;;;;;;;;;5115255;28;20038;-53
2023/12/04 09:51:02;;;;;;;16.63;12.53;;;;;;;;;;5114366;28;20036;-51
2023/12/04 09:53:29;;;;;;;19.93;12.83;;;;;;;;;;5114633;28;20419;-55
2023/12/04 09:55:57;;;;;;;16.60;12.37;;;;;;;;;;5114514;28;20051;-54
2023/12/04 09:58:25;;;;;;;15.73;12.23;;;;;;;;;;5114223;28;20361;-55
2023/12/04 10:00:54;;;;;;;16.57;12.10;;;;;;;;;;5114504;28;20024;-54
2023/12/04 10:03:19;;;;;;;14.30;12.47;;;;;;;;;;5114404;28;20027;-56
2023/12/04 10:05:48;;;;;;;15.87;12.63;;;;;;;;;;5114877;28;20030;-54
2023/12/04 10:08:16;;;;;;;17.80;12.70;;;;;;;;;;5114556;28;20059;-53
2023/12/04 10:10:42;;;;;;;17.37;13.53;;;;;;;;;;5114579;28;20024;-54
2023/12/04 10:13:08;;;;;;;14.90;12.53;;;;;;;;;;5114304;28;20020;-53
2023/12/04 10:15:34;;;;;;;15.50;12.73;;;;;;;;;;5114310;28;20123;-52
2023/12/04 10:18:00;;;;;;;16.77;13.87;;;;;;;;;;5114490;28;20032;-55
2023/12/04 10:20:26;;;;;;;15.03;11.73;;;;;;;;;;5114189;28;20038;-56
2023/12/04 10:22:59;;;;;;;18.43;13.13;;;;;;;;;;5114257;28;20027;-56
2023/12/04 10:25:27;;;;;;;26.20;13.20;;;;;;;;;;5114196;28;20082;-56
2023/12/04 10:27:54;;;;;;;13.73;11.47;;;;;;;;;;5114496;28;20127;-50
2023/12/04 10:30:31;;;;;;;16.50;11.50;;;;;;;;;;5114927;28;20028;-51
2023/12/04 10:33:00;;;;;;;15.87;12.43;;;;;;;;;;5114055;28;20525;-51
2023/12/04 10:35:26;;;;;;;16.57;12.03;;;;;;;;;;5114133;28;20088;-53
2023/12/04 10:37:56;;;;;;;14.40;12.23;;;;;;;;;;5113985;28;20492;-53
2023/12/04 10:40:26;;;;;;;15.32;12.23;;;;;;;;;;5113837;28;20020;-51
2023/12/04 10:42:52;;;;;;;17.60;13.10;;;;;;;;;;5114025;28;20073;-52
2023/12/04 10:45:21;;;;;;;16.00;11.07;;;;;;;;;;5113854;28;20042;-54
2023/12/04 10:47:48;;;;;;;13.33;10.70;;;;;;;;;;5114820;28;20038;-53
2023/12/04 10:50:14;;;;;;;14.60;10.43;;;;;;;;;;5114418;28;20468;-52
2023/12/04 10:52:40;;;;;;;15.83;11.20;;;;;;;;;;5118108;28;20450;-53
2023/12/04 10:55:08;;;;;;;12.70;11.40;;;;;;;;;;5117593;28;20093;-50
2023/12/04 10:57:38;;;;;;;13.07;10.50;;;;;;;;;;5118178;28;20032;-51
2023/12/04 11:00:05;;;;;;;10.25;7.68;;;;;;;;;;5118610;28;20028;-49
2023/12/04 11:02:33;;;;;;;12.80;10.27;;;;;;;;;;5118346;28;20435;-49
2023/12/04 11:05:03;;;;;;;13.43;9.77;;;;;;;;;;5117537;28;20019;-51
2023/12/04 11:07:31;;;;;;;9.68;8.15;;;;;;;;;;5118263;28;20028;-52
2023/12/04 11:09:58;;;;;;;11.03;9.23;;;;;;;;;;5117251;28;20378;-53
2023/12/04 11:12:25;;;;;;;13.47;9.97;;;;;;;;;;5117653;28;20027;-51
2023/12/04 11:14:54;;;;;;;14.57;12.07;;;;;;;;;;5117568;28;20024;-50
2023/12/04 11:17:20;;;;;;;17.30;13.27;;;;;;;;;;5117521;28;20032;-56
2023/12/04 11:19:46;;;;;;;13.27;10.77;;;;;;;;;;5117549;28;20465;-51
2023/12/04 11:22:12;;;;;;;16.70;11.37;;;;;;;;;;5117488;28;20056;-56
2023/12/04 11:24:39;;;;;;;15.00;10.60;;;;;;;;;;5118226;28;20385;-54
2023/12/04 11:27:05;;;;;;;12.60;10.10;;;;;;;;;;5118160;28;20024;-52
2023/12/04 11:29:33;;;;;;;14.37;10.33;;;;;;;;;;5117339;28;20031;-51
2023/12/04 11:31:59;;;;;;;12.70;10.07;;;;;;;;;;5117915;28;20030;-50
2023/12/04 11:34:25;;;;;;;12.73;10.33;;;;;;;;;;5118105;28;20023;-52
2023/12/04 11:36:51;;;;;;;12.83;9.67;;;;;;;;;;5118018;28;20189;-50
2023/12/04 11:39:19;;;;;;;14.03;10.77;;;;;;;;;;5117114;28;20111;-51
2023/12/04 11:41:45;;;;;;;15.13;11.97;;;;;;;;;;5117126;28;20457;-53
2023/12/04 11:44:15;;;;;;;12.40;9.43;;;;;;;;;;5117643;28;20028;-51
2023/12/04 11:46:55;;;;;;;14.43;10.10;;;;;;;;;;5116810;28;20472;-51
2023/12/04 11:49:31;;;;;;;11.52;10.15;;;;;;;;;;5117429;28;20031;-50
2023/12/04 11:52:01;;;;;;;17.90;10.43;;;;;;;;;;5116855;28;20369;-53
2023/12/04 11:54:28;;;;;;;10.65;8.95;;;;;;;;;;5117531;28;20019;-53
2023/12/04 11:56:58;;;;;;;12.43;9.57;;;;;;;;;;5117436;28;20059;-51
2023/12/04 11:59:24;;;;;;;12.40;10.40;;;;;;;;;;5116837;28;20055;-50
2023/12/04 12:01:51;;;;;;;10.77;8.60;;;;;;;;;;5114922;28;20027;-51
2023/12/04 12:04:18;;;;;;;14.47;11.63;;;;;;;;;;5116743;28;20028;-55
2023/12/04 12:06:44;;;;;;;14.73;11.00;;;;;;;;;;5116955;28;20028;-50
2023/12/04 12:09:11;;;;;;;11.37;9.97;;;;;;;;;;5117530;28;20020;-56
2023/12/04 12:11:37;;;;;;;12.07;9.73;;;;;;;;;;5117330;28;20026;-57
2023/12/04 12:14:04;;;;;;;12.63;11.00;;;;;;;;;;5116594;28;20097;-57
2023/12/04 12:16:32;;;;;;;14.30;10.77;;;;;;;;;;5116472;28;20032;-51
2023/12/04 12:18:58;;;;;;;11.67;10.33;;;;;;;;;;5116636;28;20122;-53
2023/12/04 12:21:24;;;;;;;14.80;11.90;;;;;;;;;;5117076;28;20062;-54
2023/12/04 12:23:50;;;;;;;14.10;11.70;;;;;;;;;;5116833;28;20076;-51
2023/12/04 12:26:16;;;;;;;16.20;11.60;;;;;;;;;;5116249;28;20120;-51
2023/12/04 12:28:42;;;;;;;18.90;14.33;;;;;;;;;;5117032;28;20410;-57
2023/12/04 12:31:08;;;;;;;13.83;11.27;;;;;;;;;;5116380;28;20030;-57
2023/12/04 12:33:34;;;;;;;17.37;11.13;;;;;;;;;;5116376;28;20110;-53
2023/12/04 12:36:03;;;;;;;16.13;12.53;;;;;;;;;;5115940;28;20483;-53
2023/12/04 12:38:29;;;;;;;13.77;12.33;;;;;;;;;;5116790;28;20031;-54
2023/12/04 12:40:55;;;;;;;17.07;12.63;;;;;;;;;;5116480;28;20449;-55
2023/12/04 12:43:23;;;;;;;20.27;14.23;;;;;;;;;;5116367;28;20027;-53
2023/12/04 12:45:49;;;;;;;21.33;14.73;;;;;;;;;;5115734;28;20039;-54
2023/12/04 12:48:15;;;;;;;18.10;15.17;;;;;;;;;;5116342;28;20110;-52
2023/12/04 12:50:44;;;;;;;19.50;13.80;;;;;;;;;;5115633;28;20024;-55
2023/12/04 12:53:14;;;;;;;23.57;15.83;;;;;;;;;;5115733;28;20031;-55
2023/12/04 12:55:43;;;;;;;17.57;15.73;;;;;;;;;;5115639;28;20079;-55
2023/12/04 12:58:13;;;;;;;18.87;16.27;;;;;;;;;;5115504;28;20042;-51
2023/12/04 13:00:43;;;;;;;20.35;15.98;;;;;;;;;;5115823;28;20024;-52
2023/12/04 13:03:09;;;;;;;;;;;;;;;;;;5115977;28;20024;-52
2023/12/04 13:05:35;;;;;;;15.83;11.97;;;;;;;;;;5115794;28;19990;-50
2023/12/04 13:08:01;;;;;;;15.00;12.77;;;;;;;;;;5115497;28;20057;-55
2023/12/04 13:10:27;;;;;;;19.70;14.33;;;;;;;;;;5115283;28;20020;-52
2023/12/04 13:12:55;;;;;;;16.00;13.07;;;;;;;;;;5115331;28;20445;-54
2023/12/04 13:15:21;;;;;;;19.13;15.17;;;;;;;;;;5115581;28;20479;-56
2023/12/04 13:17:47;;;;;;;19.07;14.03;;;;;;;;;;5115751;28;20066;-53
2023/12/04 13:20:13;;;;;;;18.73;14.17;;;;;;;;;;5115148;28;20032;-56
2023/12/04 13:22:39;;;;;;;17.47;13.73;;;;;;;;;;5115205;28;20023;-53
2023/12/04 13:25:09;;;;;;;22.93;15.03;;;;;;;;;;5115697;28;20039;-51
2023/12/04 13:27:38;;;;;;;20.85;16.13;;;;;;;;;;5116226;28;20073;-53
2023/12/04 13:30:05;;;;;;;22.13;15.07;;;;;;;;;;5114953;28;20084;-57
2023/12/04 13:32:33;;;;;;;20.00;16.13;;;;;;;;;;5115042;28;20085;-53
2023/12/04 13:34:59;;;;;;;19.07;13.83;;;;;;;;;;5115068;28;20403;-55
2023/12/04 13:37:28;;;;;;;16.97;14.93;;;;;;;;;;5115336;28;20092;-53
2023/12/04 13:39:57;;;;;;;18.57;15.13;;;;;;;;;;5115177;28;20027;-51
2023/12/04 13:45:09;;;;;;;25.03;16.47;;;;;;;;;;5115172;28;20041;-53
2023/12/04 13:47:35;;;;;;;20.63;16.80;;;;;;;;;;5114753;28;20024;-54
2023/12/04 13:50:02;;;;;;;20.00;17.43;;;;;;;;;;5115069;28;20023;-54
2023/12/04 13:52:33;;;;;;;26.17;16.50;;;;;;;;;;5114649;28;20062;-54
2023/12/04 13:54:59;;;;;;;22.17;18.10;;;;;;;;;;5115436;28;20139;-56
2023/12/04 13:57:32;;;;;;;18.53;15.77;;;;;;;;;;5115028;28;20427;-56
2023/12/04 13:59:59;;;;;;;28.33;17.50;;;;;;;;;;5115104;28;20519;-53
2023/12/04 14:02:25;;;;;;;21.30;15.30;;;;;;;;;;5114587;28;20052;-52
2023/12/04 14:04:51;;;;;;;18.50;15.10;;;;;;;;;;5114412;28;20501;-55
2023/12/04 14:07:18;;;;;;;20.37;15.07;;;;;;;;;;5115063;28;20031;-56
2023/12/04 14:09:47;;;;;;;19.37;16.90;;;;;;;;;;5114449;28;20032;-55
2023/12/04 14:12:14;;;;;;;17.17;14.23;;;;;;;;;;5114374;28;20031;-55
2023/12/04 14:14:39;;;;;;;23.97;14.73;;;;;;;;;;5114270;28;20023;-57
2023/12/04 14:17:07;;;;;;;20.37;15.87;;;;;;;;;;5114600;28;20335;-57